Main page
METAR-TAF:

METAR-TAF

Airports :

Luxembourg Findel Airport

Luxembourg, Luxembourg

latitude: 49-37N, longitude: 006-13E, elevation: 376 m

Current weather observation

The report was made 38 minutes ago, at 01:20 UTC
Wind 9 kt from the North/Northeast
Temperature 14°C
Humidity 82%
Pressure 1020 hPa

METAR: ELLX 180120Z AUTO 03009KT //// R06/P2000N // NCD 14/11 Q1020 NOSIG

Time: 03:58 (01:58 UTC)

Forecast

The report was made 2 hours and 58 minutes ago, at 23:00 UTC
Forecast valid from 18 at 00 UTC to 19 at 06 UTC
Wind 8 kt from the North/Northeast
Visibility 10 km or more
no clouds below 1500 m and no cumulonimbus
Probability 40% :
Temporary
from 18 at 02 UTC to 18 at 08 UTC
Visibility: 3500 m
Broken clouds at a height of 700 ft
mist

TAF: ELLX 172300Z 1800/1906 02008KT CAVOK PROB40 TEMPO 1802/1808 3500 BR BKN007

Weather observations and forecasts of more than 4000 airports (METAR and TAF reports).

The available stations are represented by yellow and red dots on the map.

Hover mouse over dot to see the name of the station.

Then click to see weather observations and forecasts.

To change the map : click on the green buttons with a black cross to zoom in, on the green button with a dash to zoom out, or on the green arrows for adjacent maps.


METAR-TAF: